Time;durP1;ratioP1;P1;durP2;ratioP2;P2;SDS_P1;SDS_P2;PMS_P1;PMS_P2;Temp;Humidity;BMP_temperature;BMP_pressure;BME280_temperature;BME280_humidity;BME280_pressure;Samples;Min_cycle;Max_cycle;Signal;HPM_P1;HPM_P2
2023/05/04 00:00:14;;;;;;;10.93;8.13;;;9.10;99.90;;;;;;4995146;28;20500;-80
2023/05/04 00:02:41;;;;;;;10.80;7.97;;;9.10;99.90;;;;;;4995150;28;20283;-81
2023/05/04 00:05:10;;;;;;;13.30;8.70;;;9.10;99.90;;;;;;4999659;28;20663;-81
2023/05/04 00:07:38;;;;;;;9.93;8.50;;;9.10;99.90;;;;;;4999324;28;20365;-80
2023/05/04 00:10:06;;;;;;;9.70;8.63;;;9.10;99.90;;;;;;4997129;28;20278;-80
2023/05/04 00:12:35;;;;;;;9.90;8.70;;;9.10;99.90;;;;;;5014365;28;20650;-80
2023/05/04 00:15:02;;;;;;;11.33;8.50;;;9.10;99.90;;;;;;5011880;28;20342;-81
2023/05/04 00:17:29;;;;;;;9.20;8.23;;;9.10;99.90;;;;;;4993983;28;20215;-79
2023/05/04 00:19:57;;;;;;;15.70;9.60;;;9.10;99.90;;;;;;5003103;28;20297;-82
2023/05/04 00:22:24;;;;;;;9.90;8.70;;;9.10;99.90;;;;;;5014271;28;20234;-81
2023/05/04 00:24:50;;;;;;;10.23;9.03;;;9.00;99.90;;;;;;4995253;28;20212;-79
2023/05/04 00:27:17;;;;;;;9.73;8.53;;;9.00;99.90;;;;;;4994646;28;20291;-81
2023/05/04 00:29:46;;;;;;;10.83;8.83;;;9.00;99.90;;;;;;4994704;28;20200;-79
2023/05/04 00:32:12;;;;;;;9.40;8.37;;;9.00;99.90;;;;;;4994221;28;20198;-81
2023/05/04 00:34:39;;;;;;;11.03;8.77;;;9.00;99.90;;;;;;4994101;28;20227;-80
2023/05/04 00:37:06;;;;;;;11.37;9.17;;;8.90;99.90;;;;;;4993851;28;20823;-80
2023/05/04 00:39:34;;;;;;;11.17;9.17;;;8.90;99.90;;;;;;4993013;28;20228;-80
2023/05/04 00:42:01;;;;;;;10.67;9.27;;;8.90;99.90;;;;;;5013307;28;20215;-79
2023/05/04 00:44:28;;;;;;;11.80;8.73;;;8.90;99.90;;;;;;5012339;28;20281;-81
2023/05/04 00:46:57;;;;;;;13.03;10.00;;;8.80;99.90;;;;;;5013345;28;20196;-81
2023/05/04 00:49:25;;;;;;;10.33;8.67;;;8.90;99.90;;;;;;5013813;28;20200;-81
2023/05/04 00:51:53;;;;;;;13.60;10.03;;;8.80;99.90;;;;;;5013343;28;20334;-80
2023/05/04 00:54:21;;;;;;;11.30;9.40;;;8.80;99.90;;;;;;4993953;28;20211;-80
2023/05/04 00:56:48;;;;;;;12.37;9.40;;;8.80;99.90;;;;;;4993733;28;20287;-81
2023/05/04 00:59:15;;;;;;;10.37;8.93;;;8.80;99.90;;;;;;4993270;28;20207;-80
2023/05/04 01:01:42;;;;;;;12.13;9.20;;;8.80;99.90;;;;;;4999806;28;20600;-79
2023/05/04 01:04:10;;;;;;;13.67;9.17;;;8.80;99.90;;;;;;5013285;28;20528;-80
2023/05/04 01:06:46;;;;;;;11.80;9.10;;;8.70;99.90;;;;;;5011587;28;20282;-80
2023/05/04 01:09:19;;;;;;;12.80;9.07;;;8.70;99.90;;;;;;4993700;28;20196;-79
2023/05/04 01:11:52;;;;;;;11.37;9.97;;;8.70;99.90;;;;;;4993927;28;20196;-80
2023/05/04 01:14:20;;;;;;;11.93;8.90;;;8.60;99.90;;;;;;5003204;28;20290;-80
2023/05/04 01:16:47;;;;;;;13.63;8.80;;;8.70;99.90;;;;;;4993504;28;20892;-80
2023/05/04 01:19:16;;;;;;;11.53;8.57;;;8.60;99.90;;;;;;4993601;28;20199;-79
2023/05/04 01:21:44;;;;;;;12.73;8.93;;;8.60;99.90;;;;;;4993045;28;20200;-81
2023/05/04 01:24:11;;;;;;;11.33;9.07;;;8.60;99.90;;;;;;4993210;28;20192;-80
2023/05/04 01:26:41;;;;;;;10.97;9.10;;;8.50;99.90;;;;;;5012388;28;20215;-80
2023/05/04 01:29:14;;;;;;;10.13;8.50;;;8.60;99.90;;;;;;5012748;28;20198;-79
2023/05/04 01:31:42;;;;;;;11.00;8.83;;;8.60;99.90;;;;;;5004999;28;20204;-79
2023/05/04 01:34:09;;;;;;;12.53;8.83;;;8.60;99.90;;;;;;4993488;28;20211;-79
2023/05/04 01:36:36;;;;;;;12.20;9.20;;;8.60;99.90;;;;;;4992655;28;20192;-79
2023/05/04 01:39:05;;;;;;;14.17;9.33;;;8.60;99.90;;;;;;4993377;28;20213;-79
2023/05/04 01:41:32;;;;;;;11.90;8.47;;;8.60;99.90;;;;;;4992261;28;20234;-79
2023/05/04 01:43:59;;;;;;;9.53;7.83;;;8.50;99.90;;;;;;4993020;28;20238;-79
2023/05/04 01:46:26;;;;;;;12.23;8.97;;;8.50;99.90;;;;;;4992954;28;20204;-79
2023/05/04 01:48:53;;;;;;;10.10;8.67;;;8.50;99.90;;;;;;4991884;28;20290;-81
2023/05/04 01:51:20;;;;;;;11.00;8.77;;;8.50;99.90;;;;;;4992342;28;20242;-79
2023/05/04 01:53:47;;;;;;;11.57;8.63;;;8.50;99.90;;;;;;4992826;28;20239;-80
2023/05/04 01:56:15;;;;;;;10.87;8.33;;;8.50;99.90;;;;;;4992163;28;20712;-79
2023/05/04 01:58:42;;;;;;;11.50;8.43;;;8.50;99.90;;;;;;4993412;28;20210;-79
2023/05/04 02:01:09;;;;;;;11.63;8.80;;;8.50;99.90;;;;;;4992632;28;20232;-80
2023/05/04 02:03:36;;;;;;;14.30;8.17;;;8.50;99.90;;;;;;4992106;28;20196;-79
2023/05/04 02:06:02;;;;;;;9.70;8.57;;;8.50;99.90;;;;;;4992584;28;20206;-80
2023/05/04 02:08:29;;;;;;;10.23;8.00;;;8.50;99.90;;;;;;4992797;28;20640;-79
2023/05/04 02:10:56;;;;;;;11.37;8.13;;;8.50;99.90;;;;;;4992239;28;20611;-80
2023/05/04 02:13:25;;;;;;;13.23;8.37;;;8.50;99.90;;;;;;4995120;28;20654;-80
2023/05/04 02:15:51;;;;;;;12.00;8.93;;;8.50;99.90;;;;;;5012222;28;20210;-80
2023/05/04 02:18:18;;;;;;;9.20;8.20;;;8.50;99.90;;;;;;5011893;28;20290;-79
2023/05/04 02:20:45;;;;;;;9.93;8.43;;;8.50;99.90;;;;;;4997998;28;20238;-79
2023/05/04 02:23:12;;;;;;;10.50;8.03;;;8.40;99.90;;;;;;4992749;28;20211;-80
2023/05/04 02:25:40;;;;;;;10.53;8.70;;;8.50;99.90;;;;;;4992305;28;20560;-80
2023/05/04 02:28:07;;;;;;;11.70;8.17;;;8.40;99.90;;;;;;4992650;28;20200;-81
2023/05/04 02:30:35;;;;;;;14.07;9.10;;;8.40;99.90;;;;;;4991796;28;20200;-79
2023/05/04 02:33:02;;;;;;;10.73;8.07;;;8.40;99.90;;;;;;4992824;28;20207;-80
2023/05/04 02:35:29;;;;;;;11.87;7.97;;;8.40;99.90;;;;;;4992644;28;20206;-79
2023/05/04 02:37:56;;;;;;;12.07;7.93;;;8.40;99.90;;;;;;4992213;28;20287;-79
2023/05/04 02:40:23;;;;;;;12.93;8.37;;;8.40;99.90;;;;;;4993025;28;20228;-80
2023/05/04 02:42:50;;;;;;;14.33;8.73;;;8.30;99.90;;;;;;5012247;28;20204;-81
2023/05/04 02:45:17;;;;;;;9.33;7.47;;;8.30;99.90;;;;;;5011374;28;20191;-79
2023/05/04 02:47:45;;;;;;;10.27;8.33;;;8.30;99.90;;;;;;5005668;28;20208;-78
2023/05/04 02:50:12;;;;;;;11.70;8.03;;;8.30;99.90;;;;;;4992436;28;20239;-81
2023/05/04 02:52:39;;;;;;;10.97;8.00;;;8.30;99.90;;;;;;4991958;28;20199;-79
2023/05/04 02:55:06;;;;;;;15.33;8.27;;;8.30;99.90;;;;;;4992454;28;20222;-79
2023/05/04 02:57:33;;;;;;;11.23;8.80;;;8.30;99.90;;;;;;4992484;28;20196;-80
2023/05/04 03:00:00;;;;;;;12.23;8.53;;;8.30;99.90;;;;;;4991866;28;20278;-79
2023/05/04 03:02:27;;;;;;;11.87;8.87;;;8.30;99.90;;;;;;4993721;28;20231;-81
2023/05/04 03:04:55;;;;;;;15.30;8.73;;;8.30;99.90;;;;;;4997993;28;20261;-79
2023/05/04 03:07:22;;;;;;;12.50;8.73;;;8.30;99.90;;;;;;5015237;28;20206;-78
2023/05/04 03:09:49;;;;;;;14.67;8.73;;;8.30;99.90;;;;;;5015677;28;20282;-79
2023/05/04 03:12:16;;;;;;;12.07;8.80;;;8.30;99.90;;;;;;5000895;28;20220;-80
2023/05/04 03:14:43;;;;;;;14.43;9.47;;;8.30;99.90;;;;;;4995587;28;20231;-79
2023/05/04 03:17:10;;;;;;;17.57;8.27;;;8.30;99.90;;;;;;4996124;28;20505;-78
2023/05/04 03:19:37;;;;;;;11.10;8.43;;;8.30;99.90;;;;;;4995804;28;20525;-79
2023/05/04 03:22:05;;;;;;;11.70;8.73;;;8.30;99.90;;;;;;4995272;28;20220;-79
2023/05/04 03:24:32;;;;;;;15.43;9.30;;;8.30;99.90;;;;;;4996507;28;20761;-80
2023/05/04 03:26:58;;;;;;;11.70;8.30;;;8.30;99.90;;;;;;5014659;28;20299;-79
2023/05/04 03:29:26;;;;;;;9.00;7.87;;;8.20;99.90;;;;;;5014387;28;20204;-80
2023/05/04 03:31:53;;;;;;;15.30;9.17;;;8.20;99.90;;;;;;5015063;28;20204;-80
2023/05/04 03:34:21;;;;;;;12.07;8.67;;;8.20;99.90;;;;;;5014908;28;20491;-80
2023/05/04 03:36:48;;;;;;;10.97;8.60;;;8.20;99.90;;;;;;4996006;28;20248;-80
2023/05/04 03:39:16;;;;;;;14.40;9.00;;;8.20;99.90;;;;;;4995295;28;20283;-78
2023/05/04 03:41:43;;;;;;;13.10;7.87;;;8.20;99.90;;;;;;4994733;28;20639;-80
2023/05/04 03:44:10;;;;;;;12.67;8.93;;;8.20;99.90;;;;;;5001231;28;20209;-80
2023/05/04 03:46:37;;;;;;;13.47;9.17;;;8.20;99.90;;;;;;5015058;28;20210;-80
2023/05/04 03:49:04;;;;;;;13.67;8.77;;;8.20;99.90;;;;;;5014385;28;20210;-80
2023/05/04 03:51:31;;;;;;;15.40;9.27;;;8.30;99.90;;;;;;5014353;28;20206;-80
2023/05/04 03:53:58;;;;;;;11.60;9.10;;;8.20;99.90;;;;;;5014535;28;20226;-80
2023/05/04 03:56:26;;;;;;;12.97;9.00;;;8.20;99.90;;;;;;5014438;28;20189;-80
2023/05/04 03:58:53;;;;;;;15.77;9.33;;;8.20;99.90;;;;;;5000558;28;20204;-80
2023/05/04 04:01:20;;;;;;;14.73;9.77;;;8.10;99.90;;;;;;5001461;28;20230;-79
2023/05/04 04:03:47;;;;;;;13.00;9.30;;;8.10;99.90;;;;;;5014097;28;20199;-80
2023/05/04 04:06:14;;;;;;;17.77;9.70;;;8.10;99.90;;;;;;5006322;28;20676;-79
2023/05/04 04:08:41;;;;;;;12.60;9.33;;;8.10;99.90;;;;;;4994909;28;20204;-80
2023/05/04 04:11:08;;;;;;;15.27;9.20;;;8.10;99.90;;;;;;4994294;28;20262;-80
2023/05/04 04:13:36;;;;;;;14.03;9.60;;;8.20;99.90;;;;;;4995190;28;20283;-80
2023/05/04 04:16:04;;;;;;;13.37;9.60;;;8.10;99.90;;;;;;4994532;28;20254;-79
2023/05/04 04:18:31;;;;;;;13.77;9.87;;;8.10;99.90;;;;;;4994902;28;20226;-81
2023/05/04 04:20:57;;;;;;;13.53;10.23;;;8.10;99.90;;;;;;4994768;28;20696;-79
2023/05/04 04:23:24;;;;;;;15.70;10.40;;;8.10;99.90;;;;;;4994195;28;20295;-79
2023/05/04 04:25:52;;;;;;;13.67;10.23;;;8.00;99.90;;;;;;4994894;28;20204;-79
2023/05/04 04:28:20;;;;;;;14.93;10.87;;;8.10;99.90;;;;;;4994909;28;20561;-80
2023/05/04 04:30:48;;;;;;;13.13;9.57;;;8.10;99.90;;;;;;4993555;28;20331;-80
2023/05/04 04:33:15;;;;;;;13.23;9.87;;;8.20;99.90;;;;;;4994614;28;20210;-80
2023/05/04 04:35:42;;;;;;;14.90;10.47;;;8.20;99.90;;;;;;4994519;28;20223;-80
2023/05/04 04:38:09;;;;;;;13.70;9.83;;;8.20;99.90;;;;;;4994330;28;20738;-79
2023/05/04 04:40:36;;;;;;;14.93;9.90;;;8.20;99.90;;;;;;4994188;28;20227;-80
2023/05/04 04:43:03;;;;;;;14.60;10.37;;;8.20;99.90;;;;;;4994749;28;20204;-80
2023/05/04 04:45:30;;;;;;;12.33;10.20;;;8.20;99.90;;;;;;4994219;28;20204;-80
2023/05/04 04:47:59;;;;;;;18.23;11.53;;;8.20;99.90;;;;;;4993742;28;20212;-79
2023/05/04 04:50:25;;;;;;;15.07;11.50;;;8.30;99.90;;;;;;4994365;28;20207;-79
2023/05/04 04:52:52;;;;;;;12.87;10.67;;;8.30;99.90;;;;;;4993978;28;20203;-80
2023/05/04 04:55:19;;;;;;;12.70;10.47;;;8.30;99.90;;;;;;4994283;28;20208;-80
2023/05/04 04:57:46;;;;;;;15.60;11.33;;;8.30;99.90;;;;;;4994042;28;20208;-79
2023/05/04 05:00:14;;;;;;;11.93;10.30;;;8.30;99.90;;;;;;4993427;28;20283;-80
2023/05/04 05:02:41;;;;;;;16.93;10.40;;;8.30;99.90;;;;;;4993883;28;20251;-80
2023/05/04 05:05:10;;;;;;;13.20;11.33;;;8.40;99.90;;;;;;4993531;28;20236;-81
2023/05/04 05:07:37;;;;;;;14.07;10.43;;;8.40;99.90;;;;;;4992829;28;20319;-80
2023/05/04 05:10:04;;;;;;;17.27;11.07;;;8.40;99.90;;;;;;4994059;28;20204;-80
2023/05/04 05:12:31;;;;;;;15.60;11.67;;;8.50;99.90;;;;;;4993333;28;20461;-80
2023/05/04 05:14:58;;;;;;;17.27;11.93;;;8.50;99.90;;;;;;4994116;28;20192;-81
2023/05/04 05:17:26;;;;;;;12.10;9.73;;;8.60;99.90;;;;;;4993536;28;20208;-80
2023/05/04 05:19:53;;;;;;;15.53;11.23;;;8.60;99.90;;;;;;4993025;28;20275;-81
2023/05/04 05:22:22;;;;;;;15.17;11.07;;;8.60;99.90;;;;;;4997726;28;20575;-80
2023/05/04 05:24:49;;;;;;;16.20;10.57;;;8.70;99.90;;;;;;4992825;28;20250;-80
2023/05/04 05:27:16;;;;;;;13.30;11.83;;;8.70;99.90;;;;;;4993024;28;20215;-81
2023/05/04 05:29:43;;;;;;;13.77;11.03;;;8.70;99.90;;;;;;4993678;28;20196;-79
2023/05/04 05:32:10;;;;;;;15.07;11.43;;;8.80;99.90;;;;;;4993533;28;20206;-80
2023/05/04 05:34:38;;;;;;;14.27;10.87;;;8.80;99.90;;;;;;4993159;28;20270;-81
2023/05/04 05:37:04;;;;;;;13.57;11.60;;;8.90;99.90;;;;;;4993226;28;20950;-82
2023/05/04 05:39:33;;;;;;;12.03;10.70;;;8.90;99.90;;;;;;5003639;28;20209;-80
2023/05/04 05:42:00;;;;;;;13.30;11.07;;;9.00;99.90;;;;;;5012451;28;20302;-79
2023/05/04 05:44:27;;;;;;;12.63;11.33;;;9.00;99.90;;;;;;5012765;28;20201;-79
2023/05/04 05:46:54;;;;;;;15.87;10.80;;;9.10;99.90;;;;;;5000831;28;20235;-80
2023/05/04 05:49:22;;;;;;;16.93;11.97;;;9.10;99.90;;;;;;4992581;28;20650;-80
2023/05/04 05:51:48;;;;;;;12.33;10.47;;;9.20;99.90;;;;;;5006113;28;20199;-80
2023/05/04 05:54:15;;;;;;;15.23;10.43;;;9.30;99.90;;;;;;5012745;28;20203;-79
2023/05/04 05:56:43;;;;;;;14.47;11.33;;;9.40;99.90;;;;;;5011875;28;20202;-78
2023/05/04 05:59:10;;;;;;;13.37;10.03;;;9.50;99.90;;;;;;5012674;28;20208;-77
2023/05/04 06:01:37;;;;;;;11.80;10.13;;;9.60;99.90;;;;;;4992928;28;20574;-81
2023/05/04 06:04:04;;;;;;;16.97;10.20;;;9.60;99.90;;;;;;5008823;28;20661;-79
2023/05/04 06:06:31;;;;;;;12.10;9.80;;;9.70;99.90;;;;;;5012450;28;20203;-80
2023/05/04 06:08:59;;;;;;;12.47;8.87;;;9.90;99.90;;;;;;5012229;28;20203;-79
2023/05/04 06:11:25;;;;;;;15.10;9.23;;;10.00;99.90;;;;;;4996272;28;20283;-81
2023/05/04 06:13:54;;;;;;;13.30;9.40;;;10.30;99.90;;;;;;4992759;28;20592;-81
2023/05/04 06:16:21;;;;;;;12.77;8.73;;;10.40;99.90;;;;;;5008276;28;20959;-80
2023/05/04 06:18:47;;;;;;;13.50;8.73;;;10.60;99.90;;;;;;5012622;28;20203;-80
2023/05/04 06:21:15;;;;;;;12.40;8.57;;;10.80;99.90;;;;;;5012212;28;20222;-81
2023/05/04 06:23:42;;;;;;;13.47;9.40;;;11.00;99.90;;;;;;5010297;28;20213;-79
2023/05/04 06:26:09;;;;;;;14.67;9.00;;;11.20;99.90;;;;;;5012311;28;20211;-79
2023/05/04 06:28:36;;;;;;;11.43;8.27;;;11.40;99.90;;;;;;5012588;28;20205;-80
2023/05/04 06:31:04;;;;;;;14.53;7.63;;;11.50;99.90;;;;;;5011866;28;20713;-82
2023/05/04 06:33:31;;;;;;;15.13;8.17;;;11.60;99.90;;;;;;4994562;28;20298;-79
2023/05/04 06:35:58;;;;;;;11.47;7.73;;;11.60;99.90;;;;;;4993499;28;20231;-84
2023/05/04 06:38:25;;;;;;;10.30;7.60;;;11.60;99.90;;;;;;4997135;28;20751;-84
2023/05/04 06:40:52;;;;;;;10.70;7.60;;;11.60;99.90;;;;;;4997345;28;20204;-85
2023/05/04 06:43:19;;;;;;;12.50;7.97;;;12.00;99.90;;;;;;4998362;28;20224;-82
2023/05/04 06:45:46;;;;;;;10.73;7.43;;;12.30;99.90;;;;;;5007888;28;20505;-81
2023/05/04 06:48:14;;;;;;;9.33;7.77;;;12.30;99.90;;;;;;5016119;28;20195;-80
2023/05/04 06:50:41;;;;;;;11.03;7.27;;;12.50;99.90;;;;;;5016054;28;20195;-80
2023/05/04 06:53:10;;;;;;;8.80;7.33;;;12.50;99.90;;;;;;5011619;28;20522;-77
2023/05/04 06:55:37;;;;;;;11.57;7.20;;;12.70;99.90;;;;;;5013493;28;20599;-79
2023/05/04 06:58:05;;;;;;;10.33;7.73;;;12.70;99.90;;;;;;5013079;28;20203;-79
2023/05/04 07:00:32;;;;;;;8.47;7.13;;;12.60;99.90;;;;;;5010293;28;20203;-78
2023/05/04 07:02:59;;;;;;;8.33;6.93;;;12.60;99.90;;;;;;5006982;28;20310;-79
2023/05/04 07:05:28;;;;;;;10.30;7.53;;;12.70;99.90;;;;;;5013910;28;20229;-85
2023/05/04 07:07:55;;;;;;;9.87;7.87;;;12.60;99.90;;;;;;5011100;28;20207;-81
2023/05/04 07:10:22;;;;;;;9.83;6.93;;;12.60;99.90;;;;;;4996392;28;20208;-81
2023/05/04 07:12:49;;;;;;;10.50;7.23;;;12.80;99.90;;;;;;4997242;28;20196;-82
2023/05/04 07:15:16;;;;;;;10.30;7.00;;;13.10;99.90;;;;;;4996871;28;20204;-81
2023/05/04 07:17:43;;;;;;;8.97;6.73;;;13.30;99.90;;;;;;4997021;28;20208;-84
2023/05/04 07:20:11;;;;;;;11.53;7.10;;;13.60;99.90;;;;;;4996674;28;20688;-83
2023/05/04 07:22:40;;;;;;;12.30;7.30;;;13.70;99.90;;;;;;4996989;28;20236;-84
2023/05/04 07:25:07;;;;;;;11.33;6.83;;;13.70;99.90;;;;;;5012623;28;20670;-84
2023/05/04 07:27:35;;;;;;;7.93;6.63;;;13.90;99.90;;;;;;5016242;28;20203;-82
2023/05/04 07:30:02;;;;;;;10.30;6.73;;;14.10;99.90;;;;;;5016345;28;20642;-80
2023/05/04 07:32:29;;;;;;;7.47;6.37;;;14.10;99.90;;;;;;5005221;28;20283;-81
2023/05/04 07:34:56;;;;;;;8.73;7.03;;;14.20;99.90;;;;;;4995661;28;20235;-80
2023/05/04 07:37:23;;;;;;;8.57;6.82;;;14.40;99.90;;;;;;4994028;28;20319;-79
2023/05/04 07:39:51;;;;;;;8.75;6.90;;;14.40;99.90;;;;;;4994692;28;20347;-79
2023/05/04 07:42:18;;;;;;;9.07;6.80;;;14.30;99.90;;;;;;4994597;28;20224;-81
2023/05/04 07:44:45;;;;;;;11.60;7.10;;;14.00;99.90;;;;;;4994953;28;20275;-77
2023/05/04 07:47:12;;;;;;;7.80;7.00;;;13.60;99.90;;;;;;4993601;28;20211;-78
2023/05/04 07:49:39;;;;;;;10.20;7.20;;;13.60;99.90;;;;;;4994684;28;20302;-77
2023/05/04 07:52:06;;;;;;;9.47;7.10;;;13.50;99.90;;;;;;4995115;28;20207;-79
2023/05/04 07:54:33;;;;;;;9.97;7.03;;;13.30;99.90;;;;;;4994402;28;20203;-78
2023/05/04 07:57:03;;;;;;;10.07;7.53;;;13.40;99.90;;;;;;4994890;28;20585;-78
2023/05/04 07:59:30;;;;;;;9.37;7.07;;;13.40;99.90;;;;;;4995054;28;20234;-78
2023/05/04 08:01:57;;;;;;;11.40;6.53;;;13.50;99.90;;;;;;4994030;28;20616;-78
2023/05/04 08:04:24;;;;;;;11.10;7.43;;;13.70;99.90;;;;;;4995040;28;20222;-79
2023/05/04 08:06:51;;;;;;;10.50;7.23;;;13.90;99.90;;;;;;4998513;28;20207;-82
2023/05/04 08:09:18;;;;;;;9.75;7.35;;;14.00;99.90;;;;;;5014170;28;20207;-81
2023/05/04 08:11:46;;;;;;;10.77;7.07;;;14.30;99.90;;;;;;5014503;28;20204;-79
2023/05/04 08:14:14;;;;;;;10.83;7.33;;;14.40;99.90;;;;;;5014451;28;20211;-79
2023/05/04 08:16:41;;;;;;;11.87;8.03;;;14.10;99.90;;;;;;4996331;28;20294;-81
2023/05/04 08:19:08;;;;;;;11.55;6.93;;;14.30;99.90;;;;;;5001839;28;20311;-78
2023/05/04 08:21:36;;;;;;;15.27;8.18;;;14.50;99.90;;;;;;5014134;28;20242;-80
2023/05/04 08:24:03;;;;;;;8.07;6.97;;;14.70;99.90;;;;;;5013562;28;20555;-83
2023/05/04 08:26:30;;;;;;;9.60;6.88;;;14.80;99.90;;;;;;5013619;28;20195;-80
2023/05/04 08:29:06;;;;;;;8.70;7.03;;;14.80;99.90;;;;;;5000770;28;20204;-82
2023/05/04 08:31:34;;;;;;;8.17;6.90;;;14.60;99.90;;;;;;4995467;28;20231;-82
2023/05/04 08:34:02;;;;;;;8.47;6.97;;;14.70;99.90;;;;;;4995051;28;20515;-80
2023/05/04 08:36:29;;;;;;;9.05;6.68;;;14.80;99.90;;;;;;4994605;28;20200;-84
2023/05/04 08:38:56;;;;;;;10.43;7.40;;;14.70;99.90;;;;;;4994952;28;20262;-85
2023/05/04 08:41:23;;;;;;;7.80;7.00;;;14.60;99.90;;;;;;4995047;28;20601;-82
2023/05/04 08:43:51;;;;;;;7.88;7.07;;;14.70;99.90;;;;;;5011678;28;20225;-81
2023/05/04 08:46:18;;;;;;;11.40;7.38;;;14.70;99.90;;;;;;5014630;28;20584;-81
2023/05/04 08:48:46;;;;;;;9.70;8.05;;;15.00;99.90;;;;;;5012537;28;20199;-80
2023/05/04 08:51:14;;;;;;;14.20;8.20;;;15.00;99.90;;;;;;5012972;28;20231;-80
2023/05/04 08:53:45;;;;;;;9.50;7.90;;;15.00;99.90;;;;;;5008243;28;20211;-82
2023/05/04 08:56:15;;;;;;;12.63;7.88;;;15.20;99.90;;;;;;4994176;28;20192;-80
2023/05/04 08:58:50;;;;;;;12.85;8.20;;;15.00;99.90;;;;;;4993778;28;20232;-78
2023/05/04 09:01:18;;;;;;;9.05;7.55;;;14.80;99.90;;;;;;4995163;28;20494;-77
2023/05/04 09:03:47;;;;;;;12.13;7.63;;;14.60;99.90;;;;;;5007281;28;20273;-81
2023/05/04 09:06:15;;;;;;;9.23;7.53;;;14.80;99.90;;;;;;5007406;28;20226;-82
2023/05/04 09:08:42;;;;;;;11.03;8.30;;;14.80;99.90;;;;;;4994441;28;20200;-80
2023/05/04 09:11:09;;;;;;;8.88;7.35;;;14.90;99.90;;;;;;4997526;28;20303;-80
2023/05/04 09:13:36;;;;;;;9.98;7.82;;;14.90;99.90;;;;;;5010667;28;20257;-80
2023/05/04 09:16:03;;;;;;;11.35;7.85;;;15.30;99.90;;;;;;5012697;28;20207;-81
2023/05/04 09:18:37;;;;;;;9.98;8.40;;;15.60;99.90;;;;;;5012357;28;20218;-81
2023/05/04 09:21:06;;;;;;;10.77;7.15;;;15.70;99.90;;;;;;4993115;28;20204;-81
2023/05/04 09:23:34;;;;;;;12.90;7.90;;;16.00;99.90;;;;;;5009135;28;20254;-80
2023/05/04 09:26:01;;;;;;;11.23;7.15;;;16.30;99.90;;;;;;5011827;28;20215;-80
2023/05/04 09:28:35;;;;;;;11.68;7.68;;;16.50;99.90;;;;;;5002905;28;20219;-80
2023/05/04 09:31:03;;;;;;;9.70;7.55;;;16.50;99.90;;;;;;4993612;28;20285;-79
2023/05/04 09:33:30;;;;;;;8.88;7.97;;;16.40;99.90;;;;;;4993126;28;20303;-80
2023/05/04 09:35:59;;;;;;;11.15;7.80;;;16.30;99.90;;;;;;5002066;28;20206;-80
2023/05/04 09:38:28;;;;;;;10.88;7.68;;;16.60;99.90;;;;;;5013125;28;20322;-81
2023/05/04 09:40:55;;;;;;;10.65;7.32;;;16.70;99.90;;;;;;5011938;28;20286;-80
2023/05/04 09:43:22;;;;;;;12.40;7.82;;;16.80;99.90;;;;;;5006832;28;20512;-80
2023/05/04 09:45:50;;;;;;;9.60;7.32;;;17.00;99.90;;;;;;4992838;28;20198;-79
2023/05/04 09:48:18;;;;;;;9.05;8.15;;;17.20;99.90;;;;;;4992461;28;20203;-78
2023/05/04 09:50:51;;;;;;;9.25;7.15;;;17.00;99.90;;;;;;4992864;28;20210;-81
2023/05/04 09:53:20;;;;;;;11.15;8.05;;;17.20;99.90;;;;;;5010648;28;20210;-80
2023/05/04 09:55:56;;;;;;;7.97;7.18;;;17.60;99.90;;;;;;5011837;28;20584;-78
2023/05/04 09:58:24;;;;;;;9.70;8.45;;;17.60;99.90;;;;;;5011546;28;20199;-83
2023/05/04 10:00:52;;;;;;;9.70;8.32;;;17.80;99.90;;;;;;5011716;28;20203;-80
2023/05/04 10:03:19;;;;;;;10.00;8.05;;;17.50;99.90;;;;;;5012725;28;20258;-81
2023/05/04 10:05:47;;;;;;;9.07;8.05;;;17.80;99.90;;;;;;5012347;28;20627;-80
2023/05/04 10:08:15;;;;;;;12.23;8.32;;;18.00;99.90;;;;;;5010266;28;20240;-79
2023/05/04 10:10:43;;;;;;;9.05;7.38;;;17.90;99.90;;;;;;5012138;28;20235;-78
2023/05/04 10:13:11;;;;;;;9.95;7.30;;;17.90;99.90;;;;;;5012446;28;20207;-80
2023/05/04 10:15:47;;;;;;;10.15;8.07;;;18.00;99.90;;;;;;5003143;28;20315;-81
2023/05/04 10:18:22;;;;;;;10.25;7.85;;;18.10;99.90;;;;;;4993275;28;20221;-81
2023/05/04 10:21:14;;;;;;;9.95;8.40;;;18.10;99.90;;;;;;4992922;28;20198;-79
2023/05/04 10:24:13;;;;;;;12.48;9.38;;;18.00;99.90;;;;;;4992115;28;20815;-80
2023/05/04 10:26:58;;;;;;;8.63;7.28;;;18.20;99.90;;;;;;4961051;28;20238;-80
2023/05/04 10:29:28;;;;;;;12.63;8.55;;;18.30;99.90;;;;;;5012295;28;20187;-82
2023/05/04 10:31:56;;;;;;;11.93;8.07;;;18.40;99.90;;;;;;5012246;28;20203;-78
2023/05/04 10:34:27;;;;;;;9.45;8.45;;;18.40;99.90;;;;;;4996316;28;20291;-81
2023/05/04 10:36:55;;;;;;;10.15;8.48;;;18.20;99.90;;;;;;4991897;28;20528;-80
2023/05/04 10:39:24;;;;;;;9.27;7.90;;;18.20;99.90;;;;;;4992292;28;20200;-80
2023/05/04 10:42:02;;;;;;;9.77;7.88;;;18.40;99.90;;;;;;4992875;28;20204;-80
2023/05/04 10:44:32;;;;;;;10.63;8.50;;;18.30;99.90;;;;;;4991585;28;20235;-84
2023/05/04 10:47:05;;;;;;;11.20;8.77;;;18.40;99.90;;;;;;4991591;28;20224;-80
2023/05/04 10:49:33;;;;;;;12.18;9.05;;;18.70;99.90;;;;;;4991830;28;20283;-81
2023/05/04 10:52:11;;;;;;;13.32;8.68;;;18.30;99.90;;;;;;4991507;28;20203;-81
2023/05/04 10:54:39;;;;;;;11.82;9.25;;;18.40;99.90;;;;;;4992250;28;20227;-83
2023/05/04 10:57:09;;;;;;;11.25;8.70;;;18.30;99.90;;;;;;4990378;28;20211;-81
2023/05/04 10:59:38;;;;;;;10.73;9.50;;;18.30;99.90;;;;;;5005842;28;20207;-81
2023/05/04 11:02:06;;;;;;;12.57;8.95;;;18.40;99.90;;;;;;5009682;28;20219;-80
2023/05/04 11:04:35;;;;;;;13.50;9.23;;;18.20;99.90;;;;;;5009625;28;20242;-81
2023/05/04 11:07:04;;;;;;;14.70;9.75;;;18.40;99.90;;;;;;4995616;28;20208;-81
2023/05/04 11:09:36;;;;;;;10.55;9.23;;;18.50;99.90;;;;;;4991310;28;20207;-80
2023/05/04 11:12:04;;;;;;;18.58;9.07;;;18.50;99.90;;;;;;4990972;28;20570;-81
2023/05/04 11:14:41;;;;;;;11.48;8.93;;;18.60;99.90;;;;;;4991780;28;20228;-80
2023/05/04 11:17:09;;;;;;;14.88;9.23;;;18.80;99.90;;;;;;4991473;28;20200;-78
2023/05/04 11:19:36;;;;;;;9.88;8.88;;;18.80;99.90;;;;;;4990397;28;20600;-78
2023/05/04 11:22:03;;;;;;;18.42;9.93;;;18.90;99.90;;;;;;4991744;28;20196;-79
2023/05/04 11:24:48;;;;;;;12.50;9.15;;;18.70;99.90;;;;;;4993920;28;20314;-80
2023/05/04 11:27:25;;;;;;;12.88;8.95;;;18.90;99.90;;;;;;4994354;28;20218;-80
2023/05/04 11:29:57;;;;;;;9.73;8.73;;;19.10;99.90;;;;;;4995075;28;20222;-80
2023/05/04 11:32:34;;;;;;;10.23;8.88;;;19.00;99.90;;;;;;4994106;28;20319;-81
2023/05/04 11:35:01;;;;;;;11.23;9.00;;;19.00;99.90;;;;;;4994255;28;20211;-78
2023/05/04 11:37:29;;;;;;;12.70;8.88;;;18.90;99.90;;;;;;4995120;28;20244;-80
2023/05/04 11:39:56;;;;;;;11.57;9.93;;;18.90;99.90;;;;;;4994327;28;20196;-79
2023/05/04 11:42:24;;;;;;;10.60;9.50;;;19.10;99.90;;;;;;4994215;28;20258;-79
2023/05/04 11:44:52;;;;;;;11.07;9.10;;;19.20;99.90;;;;;;4993476;28;20663;-78
2023/05/04 11:47:20;;;;;;;10.77;9.35;;;19.40;99.90;;;;;;4992897;28;20275;-81
2023/05/04 11:49:47;;;;;;;12.93;9.10;;;19.20;99.90;;;;;;5007518;28;20533;-81
2023/05/04 11:52:14;;;;;;;12.68;9.98;;;19.30;99.90;;;;;;5000449;28;20210;-79
2023/05/04 11:54:41;;;;;;;13.98;9.27;;;19.30;99.90;;;;;;5004119;28;20269;-81
2023/05/04 11:57:08;;;;;;;12.52;9.75;;;19.30;99.90;;;;;;5006913;28;20488;-77
2023/05/04 11:59:35;;;;;;;13.68;9.27;;;19.30;99.90;;;;;;5011628;28;20658;-81
2023/05/04 12:02:02;;;;;;;13.23;9.85;;;19.40;99.90;;;;;;5006059;28;20202;-80
2023/05/04 12:04:33;;;;;;;11.18;9.20;;;19.30;99.90;;;;;;5004468;28;20233;-80
2023/05/04 12:06:59;;;;;;;12.07;9.93;;;19.50;99.90;;;;;;5003612;28;21563;-81
2023/05/04 12:09:26;;;;;;;11.57;9.32;;;19.60;99.90;;;;;;5004313;28;20294;-80
2023/05/04 12:11:54;;;;;;;12.00;9.75;;;19.90;99.90;;;;;;5006124;28;20231;-81
2023/05/04 12:14:23;;;;;;;11.98;8.13;;;20.00;99.90;;;;;;5011771;28;20210;-82
2023/05/04 12:17:01;;;;;;;12.65;9.98;;;19.90;99.90;;;;;;5014342;28;20294;-82
2023/05/04 12:19:30;;;;;;;13.10;9.40;;;20.20;99.90;;;;;;5014709;28;20187;-82
2023/05/04 12:21:58;;;;;;;12.90;9.68;;;20.10;99.90;;;;;;5014211;28;20286;-81
2023/05/04 12:24:27;;;;;;;12.32;9.77;;;20.10;99.90;;;;;;5013340;28;20222;-81
2023/05/04 12:26:54;;;;;;;13.48;9.57;;;19.80;99.90;;;;;;5014765;28;20238;-80
2023/05/04 12:29:21;;;;;;;11.45;9.75;;;19.90;99.90;;;;;;5002996;28;20215;-81
2023/05/04 12:31:48;;;;;;;11.05;9.32;;;19.90;99.90;;;;;;4994194;28;20496;-79
2023/05/04 12:34:15;;;;;;;14.63;9.82;;;20.10;99.90;;;;;;4998209;28;20211;-78
2023/05/04 12:36:43;;;;;;;10.20;9.20;;;20.30;99.90;;;;;;5013188;28;20203;-80
2023/05/04 12:39:11;;;;;;;10.65;8.65;;;20.40;99.90;;;;;;5014094;28;20227;-79
2023/05/04 12:41:39;;;;;;;11.88;9.05;;;20.50;99.90;;;;;;4996825;28;20222;-80
2023/05/04 12:44:07;;;;;;;12.60;9.75;;;20.60;99.90;;;;;;4993714;28;20568;-80
2023/05/04 12:46:34;;;;;;;12.30;9.55;;;20.50;99.90;;;;;;4994483;28;20218;-78